createdAt,value
2022-10-23T00:01:16.219Z,99630.47
2022-10-23T00:03:44.965Z,99621.28
2022-10-23T00:06:15.989Z,99640.06
2022-10-23T00:08:45.088Z,99636.38
2022-10-23T00:11:15.473Z,99628.22
2022-10-23T00:13:44.007Z,99617.03
2022-10-23T00:16:12.420Z,99606.63
2022-10-23T00:18:41.465Z,99609.28
2022-10-23T00:21:12.039Z,99601.31
2022-10-23T00:23:41.841Z,99583.66
2022-10-23T00:26:15.867Z,99579.16
2022-10-23T00:28:44.670Z,99580.78
2022-10-23T00:31:13.672Z,99567.31
2022-10-23T00:33:42.771Z,99537.50
2022-10-23T00:36:12.957Z,99532.53
2022-10-23T00:38:42.557Z,99529.31
2022-10-23T00:41:15.987Z,99533.00
2022-10-23T00:44:00.398Z,99524.81
2022-10-23T00:46:28.972Z,99519.28
2022-10-23T00:48:59.456Z,99522.53
2022-10-23T00:51:31.058Z,99519.28
2022-10-23T00:56:54.445Z,99517.47
2022-10-23T00:59:22.672Z,99525.03
2022-10-23T01:01:50.885Z,99523.44
2022-10-23T01:04:19.446Z,99519.28
2022-10-23T01:06:58.246Z,99490.13
2022-10-23T01:09:33.012Z,99491.75
2022-10-23T01:12:09.819Z,99482.63
2022-10-23T01:14:44.181Z,99478.38
2022-10-23T01:17:19.644Z,99469.56
2022-10-23T01:20:00.585Z,99466.13
2022-10-23T01:22:46.338Z,99468.09
2022-10-23T01:25:27.965Z,99447.94
2022-10-23T01:28:02.852Z,99448.16
2022-10-23T01:30:33.469Z,99447.13
2022-10-23T01:33:06.562Z,99442.63
2022-10-23T01:35:39.156Z,99441.94
2022-10-23T01:38:13.724Z,99434.31
2022-10-23T01:40:48.750Z,99433.28
2022-10-23T01:43:23.397Z,99426.22
2022-10-23T01:45:57.459Z,99425.41
2022-10-23T01:48:29.941Z,99425.41
2022-10-23T01:51:01.556Z,99409.16
2022-10-23T01:53:31.720Z,99407.53
2022-10-23T01:56:03.945Z,99395.69
2022-10-23T01:58:37.148Z,99390.84
2022-10-23T02:01:09.004Z,99382.06
2022-10-23T02:03:38.961Z,99372.03
2022-10-23T02:06:07.618Z,99367.56
2022-10-23T02:08:35.981Z,99355.25
2022-10-23T02:11:09.819Z,99364.25
2022-10-23T02:13:45.776Z,99362.59
2022-10-23T02:16:23.371Z,99350.50
2022-10-23T02:18:59.516Z,99346.41
2022-10-23T02:21:33.272Z,99349.75
2022-10-23T02:24:06.601Z,99349.50
2022-10-23T02:26:39.616Z,99350.72
2022-10-23T02:29:15.928Z,99336.66
2022-10-23T02:31:44.269Z,99334.59
2022-10-23T02:34:12.451Z,99322.16
2022-10-23T02:36:40.748Z,99319.03
2022-10-23T02:39:08.934Z,99316.53
2022-10-23T02:41:43.617Z,99313.41
2022-10-23T02:44:31.068Z,99308.78
2022-10-23T02:47:11.548Z,99310.75
2022-10-23T02:49:43.417Z,99291.97
2022-10-23T02:52:17.954Z,99285.41
2022-10-23T02:55:04.151Z,99264.19
2022-10-23T02:57:34.603Z,99261.66
2022-10-23T03:00:09.365Z,99257.97
2022-10-23T03:02:41.573Z,99248.16
2022-10-23T03:05:13.634Z,99245.88
2022-10-23T03:07:42.605Z,99237.47
2022-10-23T03:10:11.807Z,99239.06
2022-10-23T03:12:41.001Z,99230.56
2022-10-23T03:15:13.156Z,99224.66
2022-10-23T03:17:41.764Z,99226.25
2022-10-23T03:20:11.710Z,99226.41
2022-10-23T03:22:40.620Z,99229.84
2022-10-23T03:25:10.532Z,99224.78
2022-10-23T03:27:38.704Z,99224.44
2022-10-23T03:30:08.558Z,99222.22
2022-10-23T03:32:38.531Z,99216.84
2022-10-23T03:35:07.493Z,99215.56
2022-10-23T03:37:35.580Z,99221.19
2022-10-23T03:40:03.950Z,99207.69
2022-10-23T03:42:32.125Z,99205.66
2022-10-23T03:45:00.170Z,99194.22
2022-10-23T03:47:30.275Z,99191.59
2022-10-23T03:50:00.055Z,99179.94
2022-10-23T03:52:28.450Z,99169.78
2022-10-23T03:54:56.633Z,99157.00
2022-10-23T03:57:25.369Z,99149.28
2022-10-23T03:59:53.540Z,99133.94
2022-10-23T04:02:21.729Z,99132.19
2022-10-23T04:04:49.965Z,99113.31
2022-10-23T04:07:19.494Z,99106.84
2022-10-23T04:09:47.575Z,99097.19
2022-10-23T04:12:15.816Z,99095.78
2022-10-23T04:14:43.862Z,99099.47
2022-10-23T04:17:12.122Z,99106.03
2022-10-23T04:19:40.276Z,99106.84
2022-10-23T04:22:08.474Z,99091.75
2022-10-23T04:24:38.039Z,99085.19
2022-10-23T04:27:06.219Z,99101.09
2022-10-23T04:29:34.325Z,99094.75
2022-10-23T04:32:02.474Z,99087.38
2022-10-23T04:34:30.597Z,99088.97
2022-10-23T04:36:58.730Z,99077.22
2022-10-23T04:39:26.972Z,99063.72
2022-10-23T04:41:56.529Z,99051.75
2022-10-23T04:44:24.617Z,99035.38
2022-10-23T04:46:52.636Z,99024.22
2022-10-23T04:49:20.741Z,99013.69
2022-10-23T04:51:48.907Z,99002.38
2022-10-23T04:54:17.099Z,98991.06
2022-10-23T04:56:45.288Z,98988.88
2022-10-23T04:59:14.965Z,98982.75
2022-10-23T05:01:43.119Z,98973.75
2022-10-23T05:04:11.420Z,98975.06
2022-10-23T05:06:39.583Z,98962.34
2022-10-23T05:09:07.769Z,98953.84
2022-10-23T05:11:35.936Z,98940.34
2022-10-23T05:14:04.177Z,98937.94
2022-10-23T05:16:40.844Z,98945.09
2022-10-23T05:19:14.796Z,98937.38
2022-10-23T05:21:43.111Z,98947.41
2022-10-23T05:24:12.002Z,98953.84
2022-10-23T05:26:40.084Z,98946.69
2022-10-23T05:29:08.288Z,98944.84
2022-10-23T05:31:38.036Z,98932.16
2022-10-23T05:34:09.957Z,98932.97
2022-10-23T05:36:41.004Z,98926.22
2022-10-23T05:39:09.146Z,98909.50
2022-10-23T05:41:37.416Z,98908.69
2022-10-23T05:44:05.758Z,98911.34
2022-10-23T05:46:33.953Z,98909.19
2022-10-23T05:49:03.482Z,98900.97
2022-10-23T05:51:31.993Z,98906.53
2022-10-23T05:54:00.151Z,98909.19
2022-10-23T05:56:28.244Z,98907.09
2022-10-23T05:58:56.448Z,98905.81
2022-10-23T06:01:24.728Z,98914.31
2022-10-23T06:03:53.047Z,98905.00
2022-10-23T06:06:22.814Z,98894.78
2022-10-23T06:08:50.892Z,98897.13
2022-10-23T06:11:19.216Z,98906.03
2022-10-23T06:13:48.477Z,98900.19
2022-10-23T06:16:18.379Z,98897.34
2022-10-23T06:18:47.804Z,98889.09
2022-10-23T06:21:16.998Z,98886.19
2022-10-23T06:23:48.152Z,98878.50
2022-10-23T06:26:17.550Z,98874.31
2022-10-23T06:28:46.094Z,98868.25
2022-10-23T06:31:16.287Z,98858.69
2022-10-23T06:33:44.356Z,98857.09
2022-10-23T06:36:13.019Z,98847.53
2022-10-23T06:38:41.701Z,98852.25
2022-10-23T06:41:14.892Z,98838.78
2022-10-23T06:43:42.936Z,98827.38
2022-10-23T06:46:11.201Z,98819.63
2022-10-23T06:48:39.511Z,98824.16
2022-10-23T06:51:09.891Z,98831.06
2022-10-23T06:53:38.924Z,98830.03
2022-10-23T06:56:08.762Z,98826.56
2022-10-23T06:58:39.778Z,98828.19
2022-10-23T07:01:10.560Z,98823.34
2022-10-23T07:03:38.961Z,98820.38
2022-10-23T07:06:08.965Z,98822.78
2022-10-23T07:08:37.428Z,98822.00
2022-10-23T07:11:06.864Z,98819.97
2022-10-23T07:13:38.647Z,98806.16
2022-10-23T07:16:14.588Z,98808.41
2022-10-23T07:18:42.842Z,98808.41
2022-10-23T07:21:11.045Z,98807.03
2022-10-23T07:23:39.244Z,98805.84
2022-10-23T07:26:08.929Z,98802.38
2022-10-23T07:28:38.970Z,98798.94
2022-10-23T07:31:07.198Z,98802.84
2022-10-23T07:33:35.422Z,98799.66
2022-10-23T07:36:05.628Z,98804.88
2022-10-23T07:38:34.061Z,98799.00
2022-10-23T07:41:02.594Z,98793.16
2022-10-23T07:46:05.474Z,98775.00
2022-10-23T07:48:33.596Z,98781.91
2022-10-23T07:51:03.596Z,98778.53
2022-10-23T07:53:31.693Z,98771.69
2022-10-23T07:56:02.118Z,98767.75
2022-10-23T07:58:31.221Z,98765.66
2022-10-23T08:01:01.278Z,98762.53
2022-10-23T08:03:33.011Z,98762.34
2022-10-23T08:06:01.283Z,98758.25
2022-10-23T08:08:29.423Z,98756.66
2022-10-23T08:10:58.122Z,98760.69
2022-10-23T08:13:26.219Z,98759.88
2022-10-23T08:15:54.416Z,98750.88
2022-10-23T08:18:22.557Z,98748.75
2022-10-23T08:20:52.612Z,98733.44
2022-10-23T08:23:21.711Z,98735.50
2022-10-23T08:25:49.840Z,98733.44
2022-10-23T08:28:18.312Z,98750.69
2022-10-23T08:30:46.484Z,98745.88
2022-10-23T08:33:14.648Z,98748.53
2022-10-23T08:35:42.796Z,98747.50
2022-10-23T08:38:12.959Z,98736.09
2022-10-23T08:40:46.071Z,98740.81
2022-10-23T08:43:21.705Z,98723.88
2022-10-23T08:45:55.067Z,98725.47
2022-10-23T08:48:34.332Z,98733.75
2022-10-23T08:51:09.662Z,98727.06
2022-10-23T08:53:47.604Z,98720.16
2022-10-23T08:56:21.906Z,98725.41
2022-10-23T08:58:55.119Z,98732.25
2022-10-23T09:01:37.446Z,98724.84
2022-10-23T09:04:06.620Z,98728.06
2022-10-23T09:06:39.599Z,98726.44
2022-10-23T09:09:27.880Z,98729.53
2022-10-23T09:12:04.388Z,98725.09
2022-10-23T09:14:51.496Z,98729.81
2022-10-23T09:17:25.688Z,98732.00
2022-10-23T09:20:00.095Z,98717.88
2022-10-23T09:22:30.018Z,98731.59
2022-10-23T09:24:59.646Z,98718.41
2022-10-23T09:27:28.048Z,98722.63
2022-10-23T09:29:58.459Z,98727.94
2022-10-23T09:32:37.728Z,98718.91
2022-10-23T09:35:07.545Z,98712.63
2022-10-23T09:37:37.697Z,98713.69
2022-10-23T09:40:19.110Z,98716.34
2022-10-23T09:42:56.328Z,98716.34
2022-10-23T09:45:31.281Z,98718.31
2022-10-23T09:48:13.684Z,98715.81
2022-10-23T09:51:01.155Z,98714.28
2022-10-23T09:53:35.691Z,98710.44
2022-10-23T09:56:14.114Z,98712.41
2022-10-23T09:58:54.944Z,98703.75
2022-10-23T10:01:25.540Z,98706.22
2022-10-23T10:03:54.398Z,98709.75
2022-10-23T10:06:25.480Z,98692.63
2022-10-23T10:08:55.795Z,98684.22
2022-10-23T10:11:31.887Z,98679.03
2022-10-23T10:14:27.806Z,98679.97
2022-10-23T10:17:02.104Z,98679.25
2022-10-23T10:19:46.663Z,98666.81
2022-10-23T10:22:28.272Z,98664.19
2022-10-23T10:25:03.349Z,98665.78
2022-10-23T10:27:45.085Z,98663.41
2022-10-23T10:30:17.196Z,98653.84
2022-10-23T10:32:52.859Z,98646.09
2022-10-23T10:35:27.932Z,98652.16
2022-10-23T10:38:12.046Z,98648.97
2022-10-23T10:40:44.282Z,98645.00
2022-10-23T10:43:25.239Z,98639.91
2022-10-23T10:46:02.558Z,98637.72
2022-10-23T10:48:42.836Z,98644.09
2022-10-23T10:51:20.294Z,98648.09
2022-10-23T10:54:00.853Z,98631.16
2022-10-23T10:56:33.192Z,98646.50
2022-10-23T10:59:06.102Z,98629.94
2022-10-23T11:01:39.435Z,98628.88
2022-10-23T11:04:15.439Z,98625.69
2022-10-23T11:06:46.859Z,98626.22
2022-10-23T11:09:20.781Z,98625.19
2022-10-23T11:11:50.599Z,98618.47
2022-10-23T11:14:23.431Z,98615.50
2022-10-23T11:16:53.229Z,98610.31
2022-10-23T11:19:25.834Z,98602.94
2022-10-23T11:21:59.767Z,98597.06
2022-10-23T11:25:06.023Z,98596.56
2022-10-23T11:27:50.151Z,98596.59
2022-10-23T11:30:26.118Z,98607.00
2022-10-23T11:33:14.239Z,98607.56
2022-10-23T11:36:07.202Z,98619.53
2022-10-23T11:38:38.245Z,98624.34
2022-10-23T11:41:19.936Z,98633.41
2022-10-23T11:43:52.563Z,98646.19
2022-10-23T11:46:36.782Z,98647.53
2022-10-23T11:49:06.651Z,98666.69
2022-10-23T11:51:36.459Z,98681.63
2022-10-23T11:54:27.393Z,98697.06
2022-10-23T11:57:11.224Z,98703.22
2022-10-23T11:59:53.359Z,98717.06
2022-10-23T12:02:32.146Z,98734.13
2022-10-23T12:05:05.554Z,98746.16
2022-10-23T12:07:37.586Z,98760.78
2022-10-23T12:10:08.780Z,98766.13
2022-10-23T12:12:40.979Z,98777.34
2022-10-23T12:15:20.517Z,98792.53
2022-10-23T12:17:51.438Z,98798.13
2022-10-23T12:20:37.948Z,98808.28
2022-10-23T12:23:47.377Z,98825.34
2022-10-23T12:26:29.559Z,98843.97
2022-10-23T12:29:05.112Z,98852.72
2022-10-23T12:31:47.964Z,98866.34
2022-10-23T12:34:32.016Z,98870.38
2022-10-23T12:37:25.671Z,98875.72
2022-10-23T12:39:55.919Z,98873.28
2022-10-23T12:42:26.248Z,98871.69
2022-10-23T12:45:07.207Z,98877.84
2022-10-23T12:47:35.430Z,98873.34
2022-10-23T12:50:05.601Z,98876.00
2022-10-23T12:52:35.821Z,98871.72
2022-10-23T12:55:14.366Z,98886.91
2022-10-23T12:57:43.559Z,98880.78
2022-10-23T13:00:16.659Z,98874.41
2022-10-23T13:02:45.249Z,98866.66
2022-10-23T13:05:19.334Z,98868.81
2022-10-23T13:07:49.785Z,98874.94
2022-10-23T13:10:20.364Z,98891.50
2022-10-23T13:12:55.812Z,98893.63
2022-10-23T13:15:25.377Z,98890.44
2022-10-23T13:18:04.461Z,98900.34
2022-10-23T13:20:36.782Z,98913.13
2022-10-23T13:23:12.742Z,98911.00
2022-10-23T13:25:41.209Z,98917.66
2022-10-23T13:28:25.134Z,98933.69
2022-10-23T13:31:06.198Z,98944.63
2022-10-23T13:33:37.940Z,98953.97
2022-10-23T13:36:22.474Z,98966.75
2022-10-23T13:39:02.232Z,98958.72
2022-10-23T13:41:35.404Z,98968.88
2022-10-23T13:44:03.729Z,98978.97
2022-10-23T13:46:32.343Z,98984.84
2022-10-23T13:49:00.445Z,98984.03
2022-10-23T13:51:31.683Z,98992.25
2022-10-23T13:54:00.055Z,98992.75
2022-10-23T13:56:30.306Z,99000.22
2022-10-23T13:58:58.428Z,99002.56
2022-10-23T14:01:29.015Z,99007.56
2022-10-23T14:03:59.086Z,98994.44
2022-10-23T14:06:27.445Z,98996.72
2022-10-23T14:08:57.072Z,98992.41
2022-10-23T14:11:25.702Z,98988.34
2022-10-23T14:13:53.810Z,98981.13
2022-10-23T14:16:22.267Z,98969.88
2022-10-23T14:18:50.479Z,98965.28
2022-10-23T14:21:21.151Z,98960.13
2022-10-23T14:23:50.203Z,98966.94
2022-10-23T14:26:22.061Z,98969.25
2022-10-23T14:28:53.802Z,98973.97
2022-10-23T14:31:22.021Z,98964.31
2022-10-23T14:33:55.015Z,98961.34
2022-10-23T14:36:23.901Z,98957.00
2022-10-23T14:38:55.561Z,98948.16
2022-10-23T14:41:26.525Z,98946.28
2022-10-23T14:43:55.949Z,98936.25
2022-10-23T14:46:25.690Z,98926.97
2022-10-23T14:48:57.529Z,98922.25
2022-10-23T14:51:30.205Z,98914.56
2022-10-23T14:54:01.727Z,98908.22
2022-10-23T14:56:33.668Z,98908.22
2022-10-23T14:59:03.821Z,98906.91
2022-10-23T15:01:32.801Z,98894.16
2022-10-23T15:04:01.402Z,98887.72
2022-10-23T15:06:29.574Z,98881.31
2022-10-23T15:08:57.887Z,98882.13
2022-10-23T15:11:27.091Z,98891.97
2022-10-23T15:13:56.803Z,98886.91
2022-10-23T15:16:25.456Z,98880.00
2022-10-23T15:18:53.934Z,98877.88
2022-10-23T15:21:21.999Z,98872.56
2022-10-23T15:23:50.564Z,98870.44
2022-10-23T15:26:23.029Z,98866.69
2022-10-23T15:28:55.364Z,98860.78
2022-10-23T15:31:45.896Z,98867.34
2022-10-23T15:34:16.507Z,98868.38
2022-10-23T15:36:47.011Z,98867.03
2022-10-23T15:39:17.690Z,98869.94
2022-10-23T15:41:46.544Z,98871.53
2022-10-23T15:44:17.524Z,98878.13
2022-10-23T15:46:47.439Z,98873.31
2022-10-23T15:49:16.412Z,98876.97
2022-10-23T15:51:45.296Z,98874.81
2022-10-23T15:54:17.201Z,98873.22
2022-10-23T15:56:46.030Z,98872.09
2022-10-23T15:59:14.436Z,98876.09
2022-10-23T16:01:43.628Z,98879.81
2022-10-23T16:04:13.348Z,98870.72
2022-10-23T16:06:41.697Z,98870.41
2022-10-23T16:09:09.973Z,98866.91
2022-10-23T16:11:40.321Z,98878.03
2022-10-23T16:14:10.907Z,98875.56
2022-10-23T16:16:39.057Z,98878.41
2022-10-23T16:19:07.247Z,98885.03
2022-10-23T16:21:37.618Z,98884.47
2022-10-23T16:24:07.687Z,98873.28
2022-10-23T16:26:37.460Z,98875.38
2022-10-23T16:29:07.296Z,98873.22
2022-10-23T16:31:35.808Z,98862.56
2022-10-23T16:34:05.573Z,98855.34
2022-10-23T16:36:34.316Z,98862.97
2022-10-23T16:39:05.606Z,98860.81
2022-10-23T16:41:33.847Z,98850.69
2022-10-23T16:44:02.203Z,98850.69
2022-10-23T16:46:30.506Z,98848.53
2022-10-23T16:48:59.001Z,98844.50
2022-10-23T16:51:28.152Z,98837.38
2022-10-23T16:53:56.882Z,98840.56
2022-10-23T16:56:29.830Z,98845.38
2022-10-23T17:01:33.379Z,98845.38
2022-10-23T17:04:02.235Z,98846.41
2022-10-23T17:06:32.767Z,98845.63
2022-10-23T17:09:02.446Z,98850.69
2022-10-23T17:11:34.284Z,98856.00
2022-10-23T17:14:04.766Z,98850.13
2022-10-23T17:16:36.261Z,98847.72
2022-10-23T17:19:15.929Z,98850.38
2022-10-23T17:21:49.381Z,98852.78
2022-10-23T17:24:17.663Z,98854.91
2022-10-23T17:26:48.508Z,98867.13
2022-10-23T17:29:17.168Z,98863.91
2022-10-23T17:31:47.198Z,98863.03
2022-10-23T17:34:17.867Z,98863.84
2022-10-23T17:36:48.992Z,98865.13
2022-10-23T17:39:19.639Z,98862.13
2022-10-23T17:41:49.749Z,98855.16
2022-10-23T17:44:17.964Z,98860.88
2022-10-23T17:46:46.030Z,98864.28
2022-10-23T17:49:14.355Z,98867.66
2022-10-23T17:51:42.984Z,98863.41
2022-10-23T17:54:14.709Z,98867.13
2022-10-23T17:56:42.909Z,98865.50
2022-10-23T17:59:15.749Z,98866.47
2022-10-23T18:01:46.582Z,98874.94
2022-10-23T18:04:18.670Z,98865.84
2022-10-23T18:06:49.027Z,98870.56
2022-10-23T18:09:17.291Z,98868.19
2022-10-23T18:11:48.422Z,98861.03
2022-10-23T18:14:19.406Z,98860.69
2022-10-23T18:16:47.778Z,98863.59
2022-10-23T18:19:17.340Z,98855.31
2022-10-23T18:21:45.521Z,98854.78
2022-10-23T18:24:14.239Z,98852.34
2022-10-23T18:26:44.044Z,98850.81
2022-10-23T18:29:13.908Z,98847.59
2022-10-23T18:31:44.052Z,98859.81
2022-10-23T18:34:17.690Z,98852.91
2022-10-23T18:36:46.220Z,98858.22
2022-10-23T18:39:16.138Z,98859.03
2022-10-23T18:41:45.857Z,98849.78
2022-10-23T18:44:17.320Z,98851.63
2022-10-23T18:46:47.634Z,98858.78
2022-10-23T18:49:17.295Z,98852.66
2022-10-23T18:51:45.850Z,98850.19
2022-10-23T18:54:15.972Z,98855.50
2022-10-23T18:56:44.726Z,98846.47
2022-10-23T18:59:15.076Z,98848.59
2022-10-23T19:01:43.989Z,98848.09
2022-10-23T19:04:16.050Z,98846.22
2022-10-23T19:06:44.852Z,98844.38
2022-10-23T19:09:15.125Z,98845.22
2022-10-23T19:11:44.127Z,98851.53
2022-10-23T19:14:12.462Z,98843.84
2022-10-23T19:16:44.910Z,98854.19
2022-10-23T19:19:19.085Z,98853.38
2022-10-23T19:21:48.419Z,98855.25
2022-10-23T19:24:20.585Z,98857.09
2022-10-23T19:26:49.578Z,98845.69
2022-10-23T19:29:22.577Z,98849.69
2022-10-23T19:31:50.874Z,98851.00
2022-10-23T19:34:23.011Z,98853.66
2022-10-23T19:36:52.078Z,98859.19
2022-10-23T19:39:20.532Z,98848.81
2022-10-23T19:41:51.676Z,98841.09
2022-10-23T19:44:21.237Z,98842.97
2022-10-23T19:46:50.271Z,98840.56
2022-10-23T19:49:20.262Z,98843.22
2022-10-23T19:51:51.264Z,98840.56
2022-10-23T19:54:20.397Z,98846.34
2022-10-23T19:56:49.021Z,98843.94
2022-10-23T19:59:17.593Z,98845.22
2022-10-23T20:01:48.107Z,98850.97
2022-10-23T20:04:17.767Z,98845.94
2022-10-23T20:06:48.397Z,98840.09
2022-10-23T20:09:16.801Z,98835.00
2022-10-23T20:11:45.614Z,98837.09
2022-10-23T20:14:14.326Z,98844.97
2022-10-23T20:16:46.266Z,98841.28
2022-10-23T20:21:53.176Z,98841.53
2022-10-23T20:24:22.528Z,98833.00
2022-10-23T20:26:52.932Z,98835.31
2022-10-23T20:29:22.064Z,98820.97
2022-10-23T20:31:50.558Z,98821.09
2022-10-23T20:34:19.317Z,98817.91
2022-10-23T20:36:50.313Z,98821.28
2022-10-23T20:39:22.176Z,98814.47
2022-10-23T20:41:50.451Z,98822.34
2022-10-23T20:44:20.262Z,98815.91
2022-10-23T20:46:49.090Z,98819.28
2022-10-23T20:49:18.197Z,98811.25
2022-10-23T20:51:47.531Z,98814.94
2022-10-23T20:54:17.950Z,98813.78
2022-10-23T20:56:47.463Z,98820.94
2022-10-23T20:59:17.848Z,98818.84
2022-10-23T21:01:49.946Z,98816.69
2022-10-23T21:04:21.064Z,98827.28
2022-10-23T21:07:08.876Z,98830.16
2022-10-23T21:09:38.331Z,98832.25
2022-10-23T21:12:09.014Z,98842.84
2022-10-23T21:14:37.572Z,98847.59
2022-10-23T21:17:05.938Z,98843.31
2022-10-23T21:19:34.104Z,98849.66
2022-10-23T21:22:02.260Z,98849.09
2022-10-23T21:24:30.423Z,98854.38
2022-10-23T21:26:58.576Z,98852.31
2022-10-23T21:29:28.205Z,98867.84
2022-10-23T21:31:57.808Z,98875.00
2022-10-23T21:34:27.309Z,98875.22
2022-10-23T21:39:43.966Z,98868.25
2022-10-23T21:42:12.502Z,98877.19
2022-10-23T21:44:42.333Z,98877.09
2022-10-23T21:47:10.669Z,98879.19
2022-10-23T21:49:39.095Z,98881.03
2022-10-23T21:52:07.661Z,98875.16
2022-10-23T21:54:35.806Z,98871.16
2022-10-23T21:57:04.428Z,98880.94
2022-10-23T21:59:35.955Z,98877.72
2022-10-23T22:02:06.230Z,98878.19
2022-10-23T22:04:34.565Z,98876.56
2022-10-23T22:07:03.897Z,98871.25
2022-10-23T22:09:33.055Z,98869.91
2022-10-23T22:12:01.649Z,98875.44
2022-10-23T22:14:30.160Z,98872.22
2022-10-23T22:16:58.660Z,98884.63
2022-10-23T22:19:28.206Z,98874.28
2022-10-23T22:21:56.554Z,98884.28
2022-10-23T22:24:25.103Z,98873.72
2022-10-23T22:26:55.881Z,98881.66
2022-10-23T22:29:26.643Z,98882.94
2022-10-23T22:31:55.121Z,98874.28
2022-10-23T22:34:34.165Z,98879.59
2022-10-23T22:37:14.761Z,98884.09
2022-10-23T22:39:43.763Z,98884.88
2022-10-23T22:42:11.953Z,98885.09
2022-10-23T22:44:40.135Z,98885.91
2022-10-23T22:47:08.492Z,98885.34
2022-10-23T22:49:36.687Z,98887.44
2022-10-23T22:52:05.103Z,98893.53
2022-10-23T22:54:34.891Z,98887.44
2022-10-23T22:57:03.405Z,98888.44
2022-10-23T22:59:31.588Z,98892.38
2022-10-23T23:01:59.811Z,98894.22
2022-10-23T23:04:43.315Z,98898.47
2022-10-23T23:07:13.610Z,98895.38
2022-10-23T23:09:45.242Z,98899.28
2022-10-23T23:12:14.096Z,98895.03
2022-10-23T23:14:42.937Z,98896.28
2022-10-23T23:17:12.142Z,98897.06
2022-10-23T23:19:40.724Z,98904.81
2022-10-23T23:22:09.293Z,98908.25
2022-10-23T23:24:37.447Z,98905.00
2022-10-23T23:27:07.010Z,98901.56
2022-10-23T23:29:35.590Z,98901.00
2022-10-23T23:32:06.262Z,98906.53
2022-10-23T23:34:34.466Z,98909.75
2022-10-23T23:37:02.671Z,98903.66
2022-10-23T23:39:30.750Z,98900.19
2022-10-23T23:41:58.865Z,98902.84
2022-10-23T23:44:28.604Z,98902.25
2022-10-23T23:46:57.364Z,98905.38
2022-10-23T23:49:25.775Z,98907.22
2022-10-23T23:51:53.850Z,98906.41
2022-10-23T23:54:22.090Z,98908.47
2022-10-23T23:56:50.165Z,98911.38
2022-10-23T23:59:18.383Z,98909.53
